Meteo Giornale » Osservazioni meteo Svizzera » Meiringen

ore: 23:20 - Osservazioni Meteo Meiringen
Lat. 46° 45' N Lon. 8° 7' E Alt. 577 metri s.l.m.

nuvoloso Europe/Zurich

11 °C

Nuvoloso

Temp. 24 Ore

6 °C

21 °C

Nord

1.8 Km/h

Dew point 9 °C

Umidità 87 %

Visibilità  10 Km

Il sole sorge alle ore 05:41

Il sole tramonta alle ore 21:07

Data e Ora Cielo e Fenomeni T °C DP °C Um. % Pres. hPa Vis. km Vento km/h
Ieri h: 23:20 nuvoloso Nuvoloso 11 9 87 1015 10 N 1.8
Ieri h: 22:20 poco_nuvoloso Poco Nuvoloso 12 9 81 1015 10 N 0
Ieri h: 21:50 molto_nuvoloso Molto Nuvoloso 15 9 67 1015 10 SO 7.4
Ieri h: 21:20 sereno Sereno 14 9 71 1014 10 N 5.5
Ieri h: 20:50 poco_nuvoloso Poco Nuvoloso 16 10 67 1014 10 N 3.7
Ieri h: 20:20 poco_nuvoloso Poco Nuvoloso 18 10 59 1014 10 O/SO 7.4
Ieri h: 19:50 molto_nuvoloso Molto Nuvoloso 19 9 52 1014 10 SO 7.4
Ieri h: 19:20 nuvoloso Nuvoloso 19 9 52 1013 10 N 5.5
Ieri h: 18:50 molto_nuvoloso Molto Nuvoloso 20 8 45 1013 10 NE 7.4
Ieri h: 18:20 nuvoloso Nuvoloso 20 7 42 1013 10 N/NE 9.3
Ieri h: 17:50 molto_nuvoloso Molto Nuvoloso 21 5 35 1014 10 E/NE 7.4
Ieri h: 17:20 nuvoloso_piovaschi Debole Rovescio di Pioggia 20 7 42 1014 10 E/NE 9.3
Ieri h: 16:50 nuvoloso_piovaschi Debole Rovescio di Pioggia 20 7 42 1014 10 E/NE 11.1
Ieri h: 16:20 molto_nuvoloso Molto Nuvoloso 21 9 46 1014 10 N 14.8
Ieri h: 15:50 nuvoloso Nuvoloso 21 10 49 1014 10 N 5.5
Ieri h: 15:20 nuvoloso Nuvoloso 20 8 45 1014 10 O 11.1
Ieri h: 14:50 nuvoloso Nuvoloso 21 8 43 1014 10 O 14.8
Ieri h: 14:20 nuvoloso Nuvoloso 21 9 46 1014 10 O 16.7
Ieri h: 13:50 molto_nuvoloso Molto Nuvoloso 21 9 46 1014 10 O/SO 13
Ieri h: 13:20 molto_nuvoloso Molto Nuvoloso 20 9 49 1015 10 O 14.8
Ieri h: 12:50 sereno Sereno 20 10 52 1015 10 O 16.7
Ieri h: 12:20 sereno Sereno 20 9 49 1015 10 O 13
Ieri h: 11:50 molto_nuvoloso Molto Nuvoloso 19 9 52 1015 10 O 11.1
Ieri h: 11:20 molto_nuvoloso Molto Nuvoloso 19 9 52 1015 10 O 13
Ieri h: 10:20 nuvoloso Nuvoloso 17 9 59 1016 10 N 1.8
Ieri h: 09:20 nuvoloso Nuvoloso 15 8 62 1016 10 N 1.8
Ieri h: 08:50 nuvoloso Nuvoloso 13 8 71 1016 10 N 3.7
Ieri h: 08:20 nuvoloso Nuvoloso 13 8 71 1016 10 N 0
Ieri h: 07:50 sereno Sereno 12 8 76 1016 10 N 0
Ieri h: 07:20 poco_nuvoloso Poco Nuvoloso 9 8 93 1016 10 N 0
Ieri h: 06:50 poco_nuvoloso Poco Nuvoloso 8 7 93 1016 10 N 1.8
Ieri h: 06:20 sereno Sereno 6 6 100 1016 10 N 3.7
Ieri h: 05:50 sereno Sereno 6 5 93 1016 10 N 5.5
Ieri h: 05:20 sereno Sereno 7 6 93 1016 10 N 0
Ieri h: 04:50 sereno Sereno 8 7 93 1016 10 N 0
Ieri h: 04:20 poco_nuvoloso Poco Nuvoloso 8 7 93 1016 10 N 0
Ieri h: 03:50 poco_nuvoloso Poco Nuvoloso 8 7 93 1016 10 N 1.8
Ieri h: 03:20 sereno Sereno 8 7 93 1016 10 N 0
Ieri h: 02:50 poco_nuvoloso Poco Nuvoloso 9 8 93 1016 10 N 0
Ieri h: 02:20 sereno Sereno 8 6 87 1016 10 N 3.7
Ieri h: 01:50 sereno Sereno 10 8 87 1017 10 N 0
Ieri h: 00:50 sereno Sereno 11 8 81 1017 10 N 5.5